sensor_id;sensor_type;location;lat;lon;timestamp;pressure;altitude;pressure_sealevel;temperature;humidity
24154;BME280;12312;53.362;-1.518;2023-03-01T00:01:31;101141.94;;;4.45;100.00
24154;BME280;12312;53.362;-1.518;2023-03-01T00:03:57;101151.66;;;4.40;100.00
24154;BME280;12312;53.362;-1.518;2023-03-01T00:06:24;101148.09;;;4.42;100.00
24154;BME280;12312;53.362;-1.518;2023-03-01T00:08:50;101145.63;;;4.33;100.00
24154;BME280;12312;53.362;-1.518;2023-03-01T00:11:27;101151.66;;;4.41;100.00
24154;BME280;12312;53.362;-1.518;2023-03-01T00:13:56;101139.28;;;4.45;100.00
24154;BME280;12312;53.362;-1.518;2023-03-01T00:16:24;101140.34;;;4.33;100.00
24154;BME280;12312;53.362;-1.518;2023-03-01T00:18:50;101138.75;;;4.25;100.00
24154;BME280;12312;53.362;-1.518;2023-03-01T00:21:16;101149.22;;;4.29;100.00
24154;BME280;12312;53.362;-1.518;2023-03-01T00:23:41;101140.44;;;4.27;100.00
24154;BME280;12312;53.362;-1.518;2023-03-01T00:26:12;101137.72;;;4.33;100.00
24154;BME280;12312;53.362;-1.518;2023-03-01T00:28:38;101138.81;;;4.22;100.00
24154;BME280;12312;53.362;-1.518;2023-03-01T00:31:12;101146.66;;;4.25;100.00
24154;BME280;12312;53.362;-1.518;2023-03-01T00:33:38;101140.50;;;4.24;100.00
24154;BME280;12312;53.362;-1.518;2023-03-01T00:36:04;101136.06;;;4.28;100.00
24154;BME280;12312;53.362;-1.518;2023-03-01T00:38:30;101136.13;;;4.25;100.00
24154;BME280;12312;53.362;-1.518;2023-03-01T00:41:03;101135.22;;;4.26;100.00
24154;BME280;12312;53.362;-1.518;2023-03-01T00:43:29;101142.38;;;4.18;100.00
24154;BME280;12312;53.362;-1.518;2023-03-01T00:45:54;101134.34;;;4.25;100.00
24154;BME280;12312;53.362;-1.518;2023-03-01T00:48:20;101144.03;;;4.23;100.00
24154;BME280;12312;53.362;-1.518;2023-03-01T00:50:45;101131.75;;;4.24;100.00
24154;BME280;12312;53.362;-1.518;2023-03-01T00:53:11;101134.50;;;4.16;100.00
24154;BME280;12312;53.362;-1.518;2023-03-01T00:55:36;101129.28;;;4.13;100.00
24154;BME280;12312;53.362;-1.518;2023-03-01T00:58:02;101133.84;;;4.02;100.00
24154;BME280;12312;53.362;-1.518;2023-03-01T01:00:27;101133.69;;;4.11;100.00
24154;BME280;12312;53.362;-1.518;2023-03-01T01:02:53;101130.28;;;4.05;100.00
24154;BME280;12312;53.362;-1.518;2023-03-01T01:05:18;101130.16;;;4.12;100.00
24154;BME280;12312;53.362;-1.518;2023-03-01T01:07:46;101132.84;;;4.09;100.00
24154;BME280;12312;53.362;-1.518;2023-03-01T01:10:12;101125.75;;;4.14;100.00
24154;BME280;12312;53.362;-1.518;2023-03-01T01:12:45;101125.91;;;4.05;100.00
24154;BME280;12312;53.362;-1.518;2023-03-01T01:15:11;101123.13;;;4.14;100.00
24154;BME280;12312;53.362;-1.518;2023-03-01T01:17:39;101116.09;;;4.15;100.00
24154;BME280;12312;53.362;-1.518;2023-03-01T01:20:23;101119.47;;;4.21;100.00
24154;BME280;12312;53.362;-1.518;2023-03-01T01:22:49;101126.44;;;4.25;100.00
24154;BME280;12312;53.362;-1.518;2023-03-01T01:25:14;101117.78;;;4.17;100.00
24154;BME280;12312;53.362;-1.518;2023-03-01T01:27:40;101111.66;;;4.15;100.00
24154;BME280;12312;53.362;-1.518;2023-03-01T01:30:05;101098.50;;;4.15;100.00
24154;BME280;12312;53.362;-1.518;2023-03-01T01:32:31;101110.75;;;4.19;100.00
24154;BME280;12312;53.362;-1.518;2023-03-01T01:34:57;101104.66;;;4.16;100.00
24154;BME280;12312;53.362;-1.518;2023-03-01T01:37:22;101096.72;;;4.17;100.00
24154;BME280;12312;53.362;-1.518;2023-03-01T01:39:47;101086.94;;;4.25;100.00
24154;BME280;12312;53.362;-1.518;2023-03-01T01:42:16;101100.00;;;4.31;100.00
24154;BME280;12312;53.362;-1.518;2023-03-01T01:44:42;101093.13;;;4.21;100.00
24154;BME280;12312;53.362;-1.518;2023-03-01T01:47:16;101085.16;;;4.26;100.00
24154;BME280;12312;53.362;-1.518;2023-03-01T01:49:54;101080.81;;;4.23;100.00
24154;BME280;12312;53.362;-1.518;2023-03-01T01:52:26;101079.97;;;4.20;100.00
24154;BME280;12312;53.362;-1.518;2023-03-01T01:55:11;101077.38;;;4.18;100.00
24154;BME280;12312;53.362;-1.518;2023-03-01T01:57:40;101077.53;;;4.09;100.00
24154;BME280;12312;53.362;-1.518;2023-03-01T02:00:19;101074.66;;;4.23;100.00
24154;BME280;12312;53.362;-1.518;2023-03-01T02:02:47;101075.59;;;4.20;100.00
24154;BME280;12312;53.362;-1.518;2023-03-01T02:07:52;101068.72;;;4.10;100.00
24154;BME280;12312;53.362;-1.518;2023-03-01T02:10:18;101060.88;;;4.07;100.00
24154;BME280;12312;53.362;-1.518;2023-03-01T02:12:45;101050.25;;;4.13;100.00
24154;BME280;12312;53.362;-1.518;2023-03-01T02:15:11;101056.59;;;4.00;100.00
24154;BME280;12312;53.362;-1.518;2023-03-01T02:17:37;101043.53;;;3.96;100.00
24154;BME280;12312;53.362;-1.518;2023-03-01T02:22:37;101037.38;;;3.95;100.00
24154;BME280;12312;53.362;-1.518;2023-03-01T02:30:27;101038.31;;;3.93;100.00
24154;BME280;12312;53.362;-1.518;2023-03-01T02:32:54;101033.97;;;3.90;100.00
24154;BME280;12312;53.362;-1.518;2023-03-01T02:35:31;101035.56;;;3.99;100.00
24154;BME280;12312;53.362;-1.518;2023-03-01T02:38:01;101029.38;;;4.01;100.00
24154;BME280;12312;53.362;-1.518;2023-03-01T02:40:29;101018.78;;;4.04;100.00
24154;BME280;12312;53.362;-1.518;2023-03-01T02:42:58;101017.91;;;4.05;100.00
24154;BME280;12312;53.362;-1.518;2023-03-01T02:45:26;101013.59;;;4.00;100.00
24154;BME280;12312;53.362;-1.518;2023-03-01T02:47:55;101016.09;;;4.07;100.00
24154;BME280;12312;53.362;-1.518;2023-03-01T02:55:22;101012.75;;;3.99;100.00
24154;BME280;12312;53.362;-1.518;2023-03-01T02:57:48;101011.88;;;3.97;100.00
24154;BME280;12312;53.362;-1.518;2023-03-01T03:00:19;101016.31;;;3.95;100.00
24154;BME280;12312;53.362;-1.518;2023-03-01T03:02:51;101006.47;;;4.06;100.00
24154;BME280;12312;53.362;-1.518;2023-03-01T03:05:27;101001.09;;;4.12;100.00
24154;BME280;12312;53.362;-1.518;2023-03-01T03:07:53;101007.38;;;4.05;100.00
24154;BME280;12312;53.362;-1.518;2023-03-01T03:10:22;101003.97;;;3.97;100.00
24154;BME280;12312;53.362;-1.518;2023-03-01T03:12:52;101008.44;;;3.94;100.00
24154;BME280;12312;53.362;-1.518;2023-03-01T03:15:18;101007.59;;;3.93;100.00
24154;BME280;12312;53.362;-1.518;2023-03-01T03:17:45;101006.44;;;4.08;100.00
24154;BME280;12312;53.362;-1.518;2023-03-01T03:20:13;101009.97;;;4.07;100.00
24154;BME280;12312;53.362;-1.518;2023-03-01T03:22:48;100996.94;;;3.99;100.00
24154;BME280;12312;53.362;-1.518;2023-03-01T03:25:15;101013.47;;;4.06;100.00
24154;BME280;12312;53.362;-1.518;2023-03-01T03:27:41;101016.19;;;4.01;100.00
24154;BME280;12312;53.362;-1.518;2023-03-01T03:30:10;101013.56;;;4.01;100.00
24154;BME280;12312;53.362;-1.518;2023-03-01T03:32:41;101026.56;;;4.12;100.00
24154;BME280;12312;53.362;-1.518;2023-03-01T03:35:08;101017.81;;;4.10;100.00
24154;BME280;12312;53.362;-1.518;2023-03-01T03:37:41;101028.38;;;4.08;100.00
24154;BME280;12312;53.362;-1.518;2023-03-01T03:41:03;101012.69;;;4.02;100.00
24154;BME280;12312;53.362;-1.518;2023-03-01T03:43:31;101005.56;;;4.07;100.00
24154;BME280;12312;53.362;-1.518;2023-03-01T03:45:58;100997.69;;;4.04;100.00
24154;BME280;12312;53.362;-1.518;2023-03-01T03:48:24;100994.25;;;4.02;100.00
24154;BME280;12312;53.362;-1.518;2023-03-01T03:50:55;100984.81;;;3.89;100.00
24154;BME280;12312;53.362;-1.518;2023-03-01T03:53:23;100986.50;;;3.93;100.00
24154;BME280;12312;53.362;-1.518;2023-03-01T03:55:49;100985.69;;;3.90;100.00
24154;BME280;12312;53.362;-1.518;2023-03-01T03:58:15;100979.44;;;3.95;100.00
24154;BME280;12312;53.362;-1.518;2023-03-01T04:00:43;100971.69;;;3.86;100.00
24154;BME280;12312;53.362;-1.518;2023-03-01T04:03:11;100969.06;;;3.86;100.00
24154;BME280;12312;53.362;-1.518;2023-03-01T04:05:38;100977.84;;;3.87;100.00
24154;BME280;12312;53.362;-1.518;2023-03-01T04:08:04;100972.72;;;3.79;100.00
24154;BME280;12312;53.362;-1.518;2023-03-01T04:10:40;100978.81;;;3.83;100.00
24154;BME280;12312;53.362;-1.518;2023-03-01T04:13:15;100984.03;;;3.84;100.00
24154;BME280;12312;53.362;-1.518;2023-03-01T04:15:41;100969.16;;;3.80;100.00
24154;BME280;12312;53.362;-1.518;2023-03-01T04:18:11;100970.81;;;3.87;100.00
24154;BME280;12312;53.362;-1.518;2023-03-01T04:20:37;100962.19;;;3.78;100.00
24154;BME280;12312;53.362;-1.518;2023-03-01T04:23:12;100973.47;;;3.86;100.00
24154;BME280;12312;53.362;-1.518;2023-03-01T04:25:52;100969.22;;;3.77;100.00
24154;BME280;12312;53.362;-1.518;2023-03-01T04:28:31;100960.22;;;3.90;100.00
24154;BME280;12312;53.362;-1.518;2023-03-01T04:31:06;100968.13;;;3.90;100.00
24154;BME280;12312;53.362;-1.518;2023-03-01T04:33:42;100951.47;;;3.88;100.00
24154;BME280;12312;53.362;-1.518;2023-03-01T04:36:09;100959.41;;;3.87;100.00
24154;BME280;12312;53.362;-1.518;2023-03-01T04:38:36;100964.56;;;3.93;100.00
24154;BME280;12312;53.362;-1.518;2023-03-01T04:41:04;100962.00;;;3.88;100.00
24154;BME280;12312;53.362;-1.518;2023-03-01T04:43:30;100960.31;;;3.86;100.00
24154;BME280;12312;53.362;-1.518;2023-03-01T04:46:00;100953.91;;;3.99;100.00
24154;BME280;12312;53.362;-1.518;2023-03-01T04:48:28;100956.00;;;3.80;100.00
24154;BME280;12312;53.362;-1.518;2023-03-01T04:50:53;100953.25;;;3.86;100.00
24154;BME280;12312;53.362;-1.518;2023-03-01T04:53:19;100947.19;;;3.84;100.00
24154;BME280;12312;53.362;-1.518;2023-03-01T04:55:46;100947.13;;;3.87;100.00
24154;BME280;12312;53.362;-1.518;2023-03-01T04:58:11;100937.34;;;3.92;100.00
24154;BME280;12312;53.362;-1.518;2023-03-01T05:00:37;100936.44;;;3.95;100.00
24154;BME280;12312;53.362;-1.518;2023-03-01T05:03:02;100941.78;;;3.92;100.00
24154;BME280;12312;53.362;-1.518;2023-03-01T05:05:34;100929.56;;;3.86;100.00
24154;BME280;12312;53.362;-1.518;2023-03-01T05:08:03;100939.28;;;3.84;100.00
24154;BME280;12312;53.362;-1.518;2023-03-01T05:10:29;100933.91;;;3.90;100.00
24154;BME280;12312;53.362;-1.518;2023-03-01T05:12:56;100929.47;;;3.91;100.00
24154;BME280;12312;53.362;-1.518;2023-03-01T05:15:29;100939.97;;;3.94;100.00
24154;BME280;12312;53.362;-1.518;2023-03-01T05:17:57;100936.41;;;3.96;100.00
24154;BME280;12312;53.362;-1.518;2023-03-01T05:20:27;100924.22;;;3.91;100.00
24154;BME280;12312;53.362;-1.518;2023-03-01T05:22:56;100933.03;;;3.90;100.00
24154;BME280;12312;53.362;-1.518;2023-03-01T05:25:22;100931.16;;;3.96;100.00
24154;BME280;12312;53.362;-1.518;2023-03-01T05:27:47;100930.31;;;3.94;100.00
24154;BME280;12312;53.362;-1.518;2023-03-01T05:30:13;100939.75;;;4.04;100.00
24154;BME280;12312;53.362;-1.518;2023-03-01T05:32:44;100939.00;;;3.99;100.00
24154;BME280;12312;53.362;-1.518;2023-03-01T05:35:12;100940.75;;;3.99;100.00
24154;BME280;12312;53.362;-1.518;2023-03-01T05:37:45;100931.84;;;4.04;100.00
24154;BME280;12312;53.362;-1.518;2023-03-01T05:40:14;100931.97;;;3.98;100.00
24154;BME280;12312;53.362;-1.518;2023-03-01T05:42:53;100932.97;;;3.93;100.00
24154;BME280;12312;53.362;-1.518;2023-03-01T05:45:20;100926.75;;;3.95;100.00
24154;BME280;12312;53.362;-1.518;2023-03-01T05:47:47;100929.59;;;3.85;100.00
24154;BME280;12312;53.362;-1.518;2023-03-01T05:52:44;100926.94;;;3.86;100.00
24154;BME280;12312;53.362;-1.518;2023-03-01T05:55:10;100926.13;;;3.83;100.00
24154;BME280;12312;53.362;-1.518;2023-03-01T05:57:35;100930.63;;;3.76;100.00
24154;BME280;12312;53.362;-1.518;2023-03-01T06:00:02;100928.81;;;3.81;100.00
24154;BME280;12312;53.362;-1.518;2023-03-01T06:02:28;100933.28;;;3.76;100.00
24154;BME280;12312;53.362;-1.518;2023-03-01T06:04:54;100931.56;;;3.74;100.00
24154;BME280;12312;53.362;-1.518;2023-03-01T06:07:20;100928.19;;;3.65;100.00
24154;BME280;12312;53.362;-1.518;2023-03-01T06:09:46;100928.81;;;3.81;100.00
24154;BME280;12312;53.362;-1.518;2023-03-01T06:12:11;100934.16;;;3.77;100.00
24154;BME280;12312;53.362;-1.518;2023-03-01T06:14:37;100922.72;;;3.78;100.00
24154;BME280;12312;53.362;-1.518;2023-03-01T06:17:03;100937.63;;;3.77;100.00
24154;BME280;12312;53.362;-1.518;2023-03-01T06:19:28;100924.53;;;3.74;100.00
24154;BME280;12312;53.362;-1.518;2023-03-01T06:21:54;100938.44;;;3.81;100.00
24154;BME280;12312;53.362;-1.518;2023-03-01T06:24:19;100932.31;;;3.80;100.00
24154;BME280;12312;53.362;-1.518;2023-03-01T06:26:45;100934.13;;;3.78;100.00
24154;BME280;12312;53.362;-1.518;2023-03-01T06:29:10;100937.50;;;3.83;100.00
24154;BME280;12312;53.362;-1.518;2023-03-01T06:31:35;100934.97;;;3.79;100.00
24154;BME280;12312;53.362;-1.518;2023-03-01T06:34:01;100937.56;;;3.80;100.00
24154;BME280;12312;53.362;-1.518;2023-03-01T06:36:27;100939.38;;;3.78;100.00
24154;BME280;12312;53.362;-1.518;2023-03-01T06:38:52;100939.28;;;3.84;100.00
24154;BME280;12312;53.362;-1.518;2023-03-01T06:41:18;100948.09;;;3.80;100.00
24154;BME280;12312;53.362;-1.518;2023-03-01T06:43:44;100954.19;;;3.84;100.00
24154;BME280;12312;53.362;-1.518;2023-03-01T06:46:09;100935.69;;;3.88;100.00
24154;BME280;12312;53.362;-1.518;2023-03-01T06:48:34;100936.69;;;3.81;100.00
24154;BME280;12312;53.362;-1.518;2023-03-01T06:51:00;100928.91;;;3.75;100.00
24154;BME280;12312;53.362;-1.518;2023-03-01T06:53:27;100933.22;;;3.79;100.00
24154;BME280;12312;53.362;-1.518;2023-03-01T06:55:56;100926.94;;;3.86;100.00
24154;BME280;12312;53.362;-1.518;2023-03-01T06:58:22;100925.25;;;3.82;100.00
24154;BME280;12312;53.362;-1.518;2023-03-01T07:00:48;100920.84;;;3.84;100.00
24154;BME280;12312;53.362;-1.518;2023-03-01T07:03:14;100933.97;;;3.86;100.00
24154;BME280;12312;53.362;-1.518;2023-03-01T07:05:39;100930.47;;;3.85;100.00
24154;BME280;12312;53.362;-1.518;2023-03-01T07:08:05;100929.41;;;3.94;100.00
24154;BME280;12312;53.362;-1.518;2023-03-01T07:10:31;100937.50;;;3.83;100.00
24154;BME280;12312;53.362;-1.518;2023-03-01T07:12:57;100930.53;;;3.82;100.00
24154;BME280;12312;53.362;-1.518;2023-03-01T07:15:24;100926.94;;;3.86;100.00
24154;BME280;12312;53.362;-1.518;2023-03-01T07:17:49;100930.59;;;3.79;100.00
24154;BME280;12312;53.362;-1.518;2023-03-01T07:20:17;100921.72;;;3.83;100.00
24154;BME280;12312;53.362;-1.518;2023-03-01T07:22:43;100932.13;;;3.89;100.00
24154;BME280;12312;53.362;-1.518;2023-03-01T07:25:09;100933.09;;;3.85;100.00
24154;BME280;12312;53.362;-1.518;2023-03-01T07:27:36;100928.75;;;3.84;100.00
24154;BME280;12312;53.362;-1.518;2023-03-01T07:30:02;100937.34;;;3.92;100.00
24154;BME280;12312;53.362;-1.518;2023-03-01T07:32:28;100927.03;;;3.80;100.00
24154;BME280;12312;53.362;-1.518;2023-03-01T07:34:53;100940.94;;;3.88;100.00
24154;BME280;12312;53.362;-1.518;2023-03-01T07:37:19;100941.94;;;3.83;100.00
24154;BME280;12312;53.362;-1.518;2023-03-01T07:39:44;100944.44;;;3.90;100.00
24154;BME280;12312;53.362;-1.518;2023-03-01T07:42:10;100934.00;;;3.84;100.00
24154;BME280;12312;53.362;-1.518;2023-03-01T07:44:35;100931.31;;;3.87;100.00
24154;BME280;12312;53.362;-1.518;2023-03-01T07:47:01;100932.16;;;3.88;100.00
24154;BME280;12312;53.362;-1.518;2023-03-01T07:49:26;100932.31;;;3.80;100.00
24154;BME280;12312;53.362;-1.518;2023-03-01T07:51:52;100929.56;;;3.86;100.00
24154;BME280;12312;53.362;-1.518;2023-03-01T07:54:18;100934.59;;;3.98;100.00
24154;BME280;12312;53.362;-1.518;2023-03-01T07:56:43;100939.34;;;3.81;100.00
24154;BME280;12312;53.362;-1.518;2023-03-01T07:59:09;100930.41;;;3.88;100.00
24154;BME280;12312;53.362;-1.518;2023-03-01T08:01:34;100926.94;;;3.86;100.00
24154;BME280;12312;53.362;-1.518;2023-03-01T08:04:00;100923.38;;;3.90;100.00
24154;BME280;12312;53.362;-1.518;2023-03-01T08:06:27;100920.78;;;3.87;100.00
24154;BME280;12312;53.362;-1.518;2023-03-01T08:08:52;100920.72;;;3.90;100.00
24154;BME280;12312;53.362;-1.518;2023-03-01T08:11:20;100914.63;;;3.88;100.00
24154;BME280;12312;53.362;-1.518;2023-03-01T08:13:47;100924.09;;;3.97;100.00
24154;BME280;12312;53.362;-1.518;2023-03-01T08:16:14;100919.81;;;3.91;100.00
24154;BME280;12312;53.362;-1.518;2023-03-01T08:18:40;100927.66;;;3.94;100.00
24154;BME280;12312;53.362;-1.518;2023-03-01T08:21:11;100933.66;;;4.02;100.00
24154;BME280;12312;53.362;-1.518;2023-03-01T08:23:37;100924.03;;;4.00;100.00
24154;BME280;12312;53.362;-1.518;2023-03-01T08:26:18;100923.13;;;4.02;100.00
24154;BME280;12312;53.362;-1.518;2023-03-01T08:28:46;100924.81;;;4.06;100.00
24154;BME280;12312;53.362;-1.518;2023-03-01T08:31:56;100934.34;;;4.13;100.00
24154;BME280;12312;53.362;-1.518;2023-03-01T08:34:08;100944.03;;;4.11;100.00
24154;BME280;12312;53.362;-1.518;2023-03-01T08:36:41;100938.59;;;4.20;100.00
24154;BME280;12312;53.362;-1.518;2023-03-01T08:39:09;100928.88;;;4.24;100.00
24154;BME280;12312;53.362;-1.518;2023-03-01T08:41:34;100920.81;;;4.31;100.00
24154;BME280;12312;53.362;-1.518;2023-03-01T08:44:00;100925.97;;;4.37;100.00
24154;BME280;12312;53.362;-1.518;2023-03-01T08:46:31;100929.34;;;4.42;100.00
24154;BME280;12312;53.362;-1.518;2023-03-01T08:48:57;100932.84;;;4.44;100.00
24154;BME280;12312;53.362;-1.518;2023-03-01T08:51:23;100937.38;;;4.36;100.00
24154;BME280;12312;53.362;-1.518;2023-03-01T08:53:49;100939.88;;;4.42;100.00
24154;BME280;12312;53.362;-1.518;2023-03-01T08:56:15;100944.34;;;4.40;100.00
24154;BME280;12312;53.362;-1.518;2023-03-01T08:58:44;100941.78;;;4.37;100.00
24154;BME280;12312;53.362;-1.518;2023-03-01T09:01:12;100945.34;;;4.33;100.00
24154;BME280;12312;53.362;-1.518;2023-03-01T09:03:38;100940.13;;;4.30;100.00
24154;BME280;12312;53.362;-1.518;2023-03-01T09:06:05;100943.31;;;4.47;100.00
24154;BME280;12312;53.362;-1.518;2023-03-01T09:08:44;100939.88;;;4.42;100.00
24154;BME280;12312;53.362;-1.518;2023-03-01T09:11:12;100936.25;;;4.49;100.00
24154;BME280;12312;53.362;-1.518;2023-03-01T09:13:38;100937.97;;;4.50;100.00
24154;BME280;12312;53.362;-1.518;2023-03-01T09:16:06;100938.88;;;4.49;100.00
24154;BME280;12312;53.362;-1.518;2023-03-01T09:18:32;100932.91;;;4.41;100.00
24154;BME280;12312;53.362;-1.518;2023-03-01T09:21:06;100939.50;;;4.60;100.00
24154;BME280;12312;53.362;-1.518;2023-03-01T09:23:33;100937.16;;;4.47;100.00
24154;BME280;12312;53.362;-1.518;2023-03-01T09:25:59;100938.84;;;4.51;100.00
24154;BME280;12312;53.362;-1.518;2023-03-01T09:28:25;100941.41;;;4.55;100.00
24154;BME280;12312;53.362;-1.518;2023-03-01T09:30:51;100944.63;;;4.69;100.00
24154;BME280;12312;53.362;-1.518;2023-03-01T09:33:16;100927.50;;;4.47;100.00
24154;BME280;12312;53.362;-1.518;2023-03-01T09:35:42;100932.91;;;4.41;100.00
24154;BME280;12312;53.362;-1.518;2023-03-01T09:38:13;100930.78;;;4.58;100.00
24154;BME280;12312;53.362;-1.518;2023-03-01T09:40:43;100918.31;;;4.66;100.00
24154;BME280;12312;53.362;-1.518;2023-03-01T09:43:37;100910.41;;;4.66;100.00
24154;BME280;12312;53.362;-1.518;2023-03-01T09:46:09;100902.53;;;4.65;100.00
24154;BME280;12312;53.362;-1.518;2023-03-01T09:48:43;100903.06;;;4.79;100.00
24154;BME280;12312;53.362;-1.518;2023-03-01T09:51:32;100887.06;;;4.86;100.00
24154;BME280;12312;53.362;-1.518;2023-03-01T09:53:58;100876.13;;;5.03;100.00
24154;BME280;12312;53.362;-1.518;2023-03-01T10:04:25;100874.03;;;5.17;100.00
24154;BME280;12312;53.362;-1.518;2023-03-01T10:09:33;100874.69;;;5.26;100.00
24154;BME280;12312;53.362;-1.518;2023-03-01T10:12:00;100861.13;;;5.06;100.00
24154;BME280;12312;53.362;-1.518;2023-03-01T10:14:36;100870.44;;;5.21;100.00
24154;BME280;12312;53.362;-1.518;2023-03-01T10:17:19;100866.66;;;5.31;100.00
24154;BME280;12312;53.362;-1.518;2023-03-01T10:19:49;100862.19;;;5.34;100.00
24154;BME280;12312;53.362;-1.518;2023-03-01T10:22:28;100881.63;;;5.30;100.00
24154;BME280;12312;53.362;-1.518;2023-03-01T10:24:56;100859.94;;;5.19;100.00
24154;BME280;12312;53.362;-1.518;2023-03-01T10:32:38;100861.31;;;5.34;100.00
24154;BME280;12312;53.362;-1.518;2023-03-01T10:35:20;100853.44;;;5.32;100.00
24154;BME280;12312;53.362;-1.518;2023-03-01T10:38:10;100851.41;;;5.43;100.00
24154;BME280;12312;53.362;-1.518;2023-03-01T10:40:50;100849.31;;;5.54;100.00
24154;BME280;12312;53.362;-1.518;2023-03-01T10:43:16;100834.16;;;5.63;100.00
24154;BME280;12312;53.362;-1.518;2023-03-01T10:45:42;100835.69;;;5.71;100.00
24154;BME280;12312;53.362;-1.518;2023-03-01T10:48:14;100837.34;;;5.75;100.00
24154;BME280;12312;53.362;-1.518;2023-03-01T10:50:48;100828.59;;;5.73;100.00
24154;BME280;12312;53.362;-1.518;2023-03-01T10:55:45;100832.72;;;5.51;100.00
24154;BME280;12312;53.362;-1.518;2023-03-01T11:00:51;100813.16;;;5.58;100.00
24154;BME280;12312;53.362;-1.518;2023-03-01T11:03:23;100830.72;;;5.59;100.00
24154;BME280;12312;53.362;-1.518;2023-03-01T11:08:37;100810.44;;;5.61;100.00
24154;BME280;12312;53.362;-1.518;2023-03-01T11:11:30;100793.78;;;5.57;100.00
24154;BME280;12312;53.362;-1.518;2023-03-01T11:16:37;100808.38;;;5.72;100.00
24154;BME280;12312;53.362;-1.518;2023-03-01T11:21:53;100810.88;;;5.77;100.00
24154;BME280;12312;53.362;-1.518;2023-03-01T11:24:27;100807.94;;;5.89;100.00
24154;BME280;12312;53.362;-1.518;2023-03-01T11:26:55;100808.41;;;5.71;100.00
24154;BME280;12312;53.362;-1.518;2023-03-01T11:29:31;100813.56;;;5.75;100.00
24154;BME280;12312;53.362;-1.518;2023-03-01T11:32:01;100809.81;;;5.84;100.00
24154;BME280;12312;53.362;-1.518;2023-03-01T11:34:53;100800.94;;;5.88;100.00
24154;BME280;12312;53.362;-1.518;2023-03-01T11:40:05;100789.84;;;6.06;100.00
24154;BME280;12312;53.362;-1.518;2023-03-01T11:42:46;100795.66;;;5.88;100.00
24154;BME280;12312;53.362;-1.518;2023-03-01T11:45:13;100801.00;;;5.85;100.00
24154;BME280;12312;53.362;-1.518;2023-03-01T11:47:55;100799.09;;;5.90;100.00
24154;BME280;12312;53.362;-1.518;2023-03-01T11:53:23;100778.81;;;5.90;100.00
24154;BME280;12312;53.362;-1.518;2023-03-01T11:56:09;100779.09;;;5.80;100.00
24154;BME280;12312;53.362;-1.518;2023-03-01T12:06:56;100775.09;;;5.97;100.00
24154;BME280;12312;53.362;-1.518;2023-03-01T12:15:26;100758.13;;;6.06;100.00
24154;BME280;12312;53.362;-1.518;2023-03-01T12:23:23;100742.25;;;6.35;100.00
24154;BME280;12312;53.362;-1.518;2023-03-01T12:47:30;100698.47;;;8.23;91.67
24154;BME280;12312;53.362;-1.518;2023-03-01T12:50:11;100695.19;;;7.47;94.24
24154;BME280;12312;53.362;-1.518;2023-03-01T12:55:36;100692.03;;;6.87;95.58
24154;BME280;12312;53.362;-1.518;2023-03-01T13:09:18;100667.16;;;6.92;100.00
24154;BME280;12312;53.362;-1.518;2023-03-01T13:11:45;100664.25;;;7.24;100.00
24154;BME280;12312;53.362;-1.518;2023-03-01T13:16:52;100648.03;;;7.09;100.00
24154;BME280;12312;53.362;-1.518;2023-03-01T13:19:20;100650.19;;;6.98;100.00
24154;BME280;12312;53.362;-1.518;2023-03-01T13:21:48;100641.06;;;6.82;100.00
24154;BME280;12312;53.362;-1.518;2023-03-01T13:24:35;100634.56;;;6.66;100.00
24154;BME280;12312;53.362;-1.518;2023-03-01T13:27:21;100617.81;;;6.65;100.00
24154;BME280;12312;53.362;-1.518;2023-03-01T13:34:56;100613.72;;;6.81;100.00
24154;BME280;12312;53.362;-1.518;2023-03-01T13:37:25;100609.59;;;7.22;99.28
24154;BME280;12312;53.362;-1.518;2023-03-01T13:39:52;100592.22;;;7.15;99.68
24154;BME280;12312;53.362;-1.518;2023-03-01T13:42:36;100601.81;;;7.17;99.17
24154;BME280;12312;53.362;-1.518;2023-03-01T13:45:05;100612.16;;;7.48;96.23
24154;BME280;12312;53.362;-1.518;2023-03-01T13:47:32;100600.13;;;7.84;93.94
24154;BME280;12312;53.362;-1.518;2023-03-01T13:50:01;100596.50;;;7.42;96.91
24154;BME280;12312;53.362;-1.518;2023-03-01T13:52:48;100590.16;;;7.23;97.62
24154;BME280;12312;53.362;-1.518;2023-03-01T13:57:59;100595.56;;;7.20;96.38
24154;BME280;12312;53.362;-1.518;2023-03-01T14:00:39;100581.44;;;6.96;97.62
24154;BME280;12312;53.362;-1.518;2023-03-01T14:05:39;100592.13;;;6.93;98.00
24154;BME280;12312;53.362;-1.518;2023-03-01T14:08:18;100585.84;;;6.96;98.25
24154;BME280;12312;53.362;-1.518;2023-03-01T14:11:08;100571.94;;;6.91;97.52
24154;BME280;12312;53.362;-1.518;2023-03-01T14:19:19;100550.25;;;6.57;100.00
24154;BME280;12312;53.362;-1.518;2023-03-01T14:24:26;100548.53;;;6.56;100.00
24154;BME280;12312;53.362;-1.518;2023-03-01T14:26:54;100552.16;;;6.52;100.00
24154;BME280;12312;53.362;-1.518;2023-03-01T14:29:36;100554.44;;;6.38;100.00
24154;BME280;12312;53.362;-1.518;2023-03-01T14:32:20;100550.97;;;6.36;100.00
24154;BME280;12312;53.362;-1.518;2023-03-01T14:34:48;100539.91;;;6.25;100.00
24154;BME280;12312;53.362;-1.518;2023-03-01T14:37:34;100549.16;;;6.38;100.00
24154;BME280;12312;53.362;-1.518;2023-03-01T14:40:02;100536.72;;;6.40;100.00
24154;BME280;12312;53.362;-1.518;2023-03-01T14:42:31;100534.81;;;6.45;100.00
24154;BME280;12312;53.362;-1.518;2023-03-01T14:45:00;100529.41;;;6.48;100.00
24154;BME280;12312;53.362;-1.518;2023-03-01T14:47:34;100525.19;;;6.67;100.00
24154;BME280;12312;53.362;-1.518;2023-03-01T14:52:35;100533.19;;;6.41;100.00
24154;BME280;12312;53.362;-1.518;2023-03-01T14:55:05;100533.34;;;6.10;100.00
24154;BME280;12312;53.362;-1.518;2023-03-01T14:57:31;100527.09;;;5.87;100.00
24154;BME280;12312;53.362;-1.518;2023-03-01T15:00:02;100522.06;;;5.78;100.00
24154;BME280;12312;53.362;-1.518;2023-03-01T15:02:31;100525.63;;;5.77;100.00
24154;BME280;12312;53.362;-1.518;2023-03-01T15:05:00;100520.50;;;6.00;100.00